sensor_id;sensor_type;location;lat;lon;timestamp;P1;durP1;ratioP1;P2;durP2;ratioP2
12385;SDS011;6257;57.634;18.310;2023-04-24T00:00:15;5.90;;;5.40;;
12385;SDS011;6257;57.634;18.310;2023-04-24T00:02:43;6.90;;;6.30;;
12385;SDS011;6257;57.634;18.310;2023-04-24T00:05:13;5.83;;;5.33;;
12385;SDS011;6257;57.634;18.310;2023-04-24T00:07:42;6.47;;;5.87;;
12385;SDS011;6257;57.634;18.310;2023-04-24T00:10:10;6.10;;;5.50;;
12385;SDS011;6257;57.634;18.310;2023-04-24T00:12:38;6.13;;;5.63;;
12385;SDS011;6257;57.634;18.310;2023-04-24T00:15:05;6.27;;;5.67;;
12385;SDS011;6257;57.634;18.310;2023-04-24T00:17:33;6.57;;;5.97;;
12385;SDS011;6257;57.634;18.310;2023-04-24T00:20:01;6.33;;;5.83;;
12385;SDS011;6257;57.634;18.310;2023-04-24T00:22:31;7.37;;;6.67;;
12385;SDS011;6257;57.634;18.310;2023-04-24T00:24:58;7.50;;;6.80;;
12385;SDS011;6257;57.634;18.310;2023-04-24T00:27:25;8.00;;;7.20;;
12385;SDS011;6257;57.634;18.310;2023-04-24T00:29:52;8.03;;;7.27;;
12385;SDS011;6257;57.634;18.310;2023-04-24T00:32:19;7.77;;;7.07;;
12385;SDS011;6257;57.634;18.310;2023-04-24T00:34:46;8.93;;;7.83;;
12385;SDS011;6257;57.634;18.310;2023-04-24T00:37:13;7.80;;;7.10;;
12385;SDS011;6257;57.634;18.310;2023-04-24T00:39:41;7.67;;;6.93;;
12385;SDS011;6257;57.634;18.310;2023-04-24T00:42:09;7.77;;;7.07;;
12385;SDS011;6257;57.634;18.310;2023-04-24T00:44:36;8.00;;;7.20;;
12385;SDS011;6257;57.634;18.310;2023-04-24T00:47:03;7.33;;;6.67;;
12385;SDS011;6257;57.634;18.310;2023-04-24T00:49:30;7.20;;;6.50;;
12385;SDS011;6257;57.634;18.310;2023-04-24T00:51:57;6.97;;;6.33;;
12385;SDS011;6257;57.634;18.310;2023-04-24T00:54:24;7.33;;;6.63;;
12385;SDS011;6257;57.634;18.310;2023-04-24T00:56:53;7.37;;;6.67;;
12385;SDS011;6257;57.634;18.310;2023-04-24T00:59:20;7.03;;;6.33;;
12385;SDS011;6257;57.634;18.310;2023-04-24T01:01:47;6.67;;;6.03;;
12385;SDS011;6257;57.634;18.310;2023-04-24T01:04:14;6.67;;;6.07;;
12385;SDS011;6257;57.634;18.310;2023-04-24T01:06:43;6.90;;;5.87;;
12385;SDS011;6257;57.634;18.310;2023-04-24T01:09:11;9.77;;;6.73;;
12385;SDS011;6257;57.634;18.310;2023-04-24T01:11:39;6.97;;;6.30;;
12385;SDS011;6257;57.634;18.310;2023-04-24T01:14:10;6.60;;;6.00;;
12385;SDS011;6257;57.634;18.310;2023-04-24T01:16:37;6.57;;;5.87;;
12385;SDS011;6257;57.634;18.310;2023-04-24T01:19:04;6.60;;;6.00;;
12385;SDS011;6257;57.634;18.310;2023-04-24T01:21:33;6.40;;;5.80;;
12385;SDS011;6257;57.634;18.310;2023-04-24T01:24:04;6.37;;;5.87;;
12385;SDS011;6257;57.634;18.310;2023-04-24T01:26:32;6.33;;;5.73;;
12385;SDS011;6257;57.634;18.310;2023-04-24T01:29:00;6.70;;;6.10;;
12385;SDS011;6257;57.634;18.310;2023-04-24T01:31:27;6.23;;;5.63;;
12385;SDS011;6257;57.634;18.310;2023-04-24T01:33:56;7.47;;;6.27;;
12385;SDS011;6257;57.634;18.310;2023-04-24T01:36:23;7.07;;;6.37;;
12385;SDS011;6257;57.634;18.310;2023-04-24T01:38:52;7.10;;;6.40;;
12385;SDS011;6257;57.634;18.310;2023-04-24T01:41:20;7.60;;;6.30;;
12385;SDS011;6257;57.634;18.310;2023-04-24T01:43:48;7.20;;;6.30;;
12385;SDS011;6257;57.634;18.310;2023-04-24T01:46:15;7.33;;;6.63;;
12385;SDS011;6257;57.634;18.310;2023-04-24T01:48:43;7.10;;;6.40;;
12385;SDS011;6257;57.634;18.310;2023-04-24T01:51:11;7.50;;;6.70;;
12385;SDS011;6257;57.634;18.310;2023-04-24T01:53:38;8.10;;;7.00;;
12385;SDS011;6257;57.634;18.310;2023-04-24T01:56:05;7.53;;;6.83;;
12385;SDS011;6257;57.634;18.310;2023-04-24T01:58:34;7.17;;;6.47;;
12385;SDS011;6257;57.634;18.310;2023-04-24T02:01:01;7.60;;;6.83;;
12385;SDS011;6257;57.634;18.310;2023-04-24T02:03:28;7.60;;;6.80;;
12385;SDS011;6257;57.634;18.310;2023-04-24T02:05:55;7.87;;;6.70;;
12385;SDS011;6257;57.634;18.310;2023-04-24T02:08:22;7.23;;;6.53;;
12385;SDS011;6257;57.634;18.310;2023-04-24T02:10:49;7.37;;;6.67;;
12385;SDS011;6257;57.634;18.310;2023-04-24T02:13:16;7.63;;;6.87;;
12385;SDS011;6257;57.634;18.310;2023-04-24T02:15:45;7.13;;;6.43;;
12385;SDS011;6257;57.634;18.310;2023-04-24T02:18:12;7.40;;;6.70;;
12385;SDS011;6257;57.634;18.310;2023-04-24T02:20:40;7.77;;;7.03;;
12385;SDS011;6257;57.634;18.310;2023-04-24T02:23:07;8.10;;;7.30;;
12385;SDS011;6257;57.634;18.310;2023-04-24T02:25:34;10.00;;;7.57;;
12385;SDS011;6257;57.634;18.310;2023-04-24T02:28:01;8.97;;;7.47;;
12385;SDS011;6257;57.634;18.310;2023-04-24T02:30:28;8.13;;;7.33;;
12385;SDS011;6257;57.634;18.310;2023-04-24T02:32:57;7.83;;;6.70;;
12385;SDS011;6257;57.634;18.310;2023-04-24T02:35:24;8.43;;;6.77;;
12385;SDS011;6257;57.634;18.310;2023-04-24T02:37:51;7.20;;;6.50;;
12385;SDS011;6257;57.634;18.310;2023-04-24T02:40:19;7.97;;;6.10;;
12385;SDS011;6257;57.634;18.310;2023-04-24T02:42:46;7.53;;;6.77;;
12385;SDS011;6257;57.634;18.310;2023-04-24T02:45:13;7.00;;;6.40;;
12385;SDS011;6257;57.634;18.310;2023-04-24T02:47:41;7.47;;;6.70;;
12385;SDS011;6257;57.634;18.310;2023-04-24T02:50:09;7.80;;;7.00;;
12385;SDS011;6257;57.634;18.310;2023-04-24T02:52:36;7.50;;;6.67;;
12385;SDS011;6257;57.634;18.310;2023-04-24T02:55:04;7.17;;;6.47;;
12385;SDS011;6257;57.634;18.310;2023-04-24T02:57:33;7.97;;;7.20;;
12385;SDS011;6257;57.634;18.310;2023-04-24T03:00:00;7.53;;;6.73;;
12385;SDS011;6257;57.634;18.310;2023-04-24T03:02:28;9.07;;;6.80;;
12385;SDS011;6257;57.634;18.310;2023-04-24T03:04:55;9.13;;;6.67;;
12385;SDS011;6257;57.634;18.310;2023-04-24T03:07:23;7.33;;;6.63;;
12385;SDS011;6257;57.634;18.310;2023-04-24T03:09:51;7.00;;;6.40;;
12385;SDS011;6257;57.634;18.310;2023-04-24T03:12:18;7.23;;;6.53;;
12385;SDS011;6257;57.634;18.310;2023-04-24T03:14:45;7.03;;;6.33;;
12385;SDS011;6257;57.634;18.310;2023-04-24T03:17:12;7.43;;;6.63;;
12385;SDS011;6257;57.634;18.310;2023-04-24T03:19:39;7.87;;;7.00;;
12385;SDS011;6257;57.634;18.310;2023-04-24T03:22:06;8.10;;;7.30;;
12385;SDS011;6257;57.634;18.310;2023-04-24T03:24:35;9.80;;;7.60;;
12385;SDS011;6257;57.634;18.310;2023-04-24T03:27:02;7.63;;;6.83;;
12385;SDS011;6257;57.634;18.310;2023-04-24T03:29:29;10.00;;;7.70;;
12385;SDS011;6257;57.634;18.310;2023-04-24T03:31:56;8.40;;;7.50;;
12385;SDS011;6257;57.634;18.310;2023-04-24T03:34:24;7.93;;;7.07;;
12385;SDS011;6257;57.634;18.310;2023-04-24T03:36:51;9.07;;;7.23;;
12385;SDS011;6257;57.634;18.310;2023-04-24T03:39:18;11.80;;;7.33;;
12385;SDS011;6257;57.634;18.310;2023-04-24T03:41:47;8.73;;;7.67;;
12385;SDS011;6257;57.634;18.310;2023-04-24T03:44:14;12.33;;;7.83;;
12385;SDS011;6257;57.634;18.310;2023-04-24T03:46:41;20.73;;;8.13;;
12385;SDS011;6257;57.634;18.310;2023-04-24T03:49:08;14.77;;;7.43;;
12385;SDS011;6257;57.634;18.310;2023-04-24T03:51:35;14.43;;;7.87;;
12385;SDS011;6257;57.634;18.310;2023-04-24T03:54:02;8.93;;;6.93;;
12385;SDS011;6257;57.634;18.310;2023-04-24T03:56:29;10.43;;;7.20;;
12385;SDS011;6257;57.634;18.310;2023-04-24T03:58:57;9.00;;;7.33;;
12385;SDS011;6257;57.634;18.310;2023-04-24T04:01:25;7.93;;;6.90;;
12385;SDS011;6257;57.634;18.310;2023-04-24T04:03:53;8.40;;;7.00;;
12385;SDS011;6257;57.634;18.310;2023-04-24T04:06:20;8.33;;;6.00;;
12385;SDS011;6257;57.634;18.310;2023-04-24T04:08:47;8.13;;;6.77;;
12385;SDS011;6257;57.634;18.310;2023-04-24T04:11:14;7.77;;;6.97;;
12385;SDS011;6257;57.634;18.310;2023-04-24T04:13:41;8.00;;;7.20;;
12385;SDS011;6257;57.634;18.310;2023-04-24T04:16:10;10.03;;;7.33;;
12385;SDS011;6257;57.634;18.310;2023-04-24T04:18:37;8.10;;;7.30;;
12385;SDS011;6257;57.634;18.310;2023-04-24T04:21:04;8.37;;;7.27;;
12385;SDS011;6257;57.634;18.310;2023-04-24T04:23:31;7.63;;;6.93;;
12385;SDS011;6257;57.634;18.310;2023-04-24T04:25:58;9.53;;;7.33;;
12385;SDS011;6257;57.634;18.310;2023-04-24T04:28:26;8.03;;;7.23;;
12385;SDS011;6257;57.634;18.310;2023-04-24T04:30:53;10.83;;;7.13;;
12385;SDS011;6257;57.634;18.310;2023-04-24T04:33:22;10.00;;;7.90;;
12385;SDS011;6257;57.634;18.310;2023-04-24T04:35:49;11.30;;;8.23;;
12385;SDS011;6257;57.634;18.310;2023-04-24T04:38:17;9.60;;;7.67;;
12385;SDS011;6257;57.634;18.310;2023-04-24T04:40:45;8.83;;;7.63;;
12385;SDS011;6257;57.634;18.310;2023-04-24T04:43:12;9.47;;;7.80;;
12385;SDS011;6257;57.634;18.310;2023-04-24T04:45:40;8.17;;;7.37;;
12385;SDS011;6257;57.634;18.310;2023-04-24T04:48:08;12.33;;;8.43;;
12385;SDS011;6257;57.634;18.310;2023-04-24T04:50:39;10.90;;;8.07;;
12385;SDS011;6257;57.634;18.310;2023-04-24T04:53:06;9.37;;;7.50;;
12385;SDS011;6257;57.634;18.310;2023-04-24T04:55:33;8.00;;;7.20;;
12385;SDS011;6257;57.634;18.310;2023-04-24T04:58:00;10.77;;;7.47;;
12385;SDS011;6257;57.634;18.310;2023-04-24T05:00:27;11.43;;;7.50;;
12385;SDS011;6257;57.634;18.310;2023-04-24T05:02:59;9.77;;;7.83;;
12385;SDS011;6257;57.634;18.310;2023-04-24T05:05:26;11.07;;;7.53;;
12385;SDS011;6257;57.634;18.310;2023-04-24T05:07:54;10.37;;;7.43;;
12385;SDS011;6257;57.634;18.310;2023-04-24T05:10:22;11.70;;;8.53;;
12385;SDS011;6257;57.634;18.310;2023-04-24T05:12:49;13.20;;;8.37;;
12385;SDS011;6257;57.634;18.310;2023-04-24T05:15:16;11.87;;;8.67;;
12385;SDS011;6257;57.634;18.310;2023-04-24T05:17:43;12.50;;;8.13;;
12385;SDS011;6257;57.634;18.310;2023-04-24T05:20:10;10.33;;;8.20;;
12385;SDS011;6257;57.634;18.310;2023-04-24T05:22:37;11.70;;;8.40;;
12385;SDS011;6257;57.634;18.310;2023-04-24T05:25:06;11.37;;;7.83;;
12385;SDS011;6257;57.634;18.310;2023-04-24T05:27:34;11.90;;;8.17;;
12385;SDS011;6257;57.634;18.310;2023-04-24T05:30:01;11.87;;;8.03;;
12385;SDS011;6257;57.634;18.310;2023-04-24T05:32:28;11.20;;;8.40;;
12385;SDS011;6257;57.634;18.310;2023-04-24T05:34:55;9.70;;;7.90;;
12385;SDS011;6257;57.634;18.310;2023-04-24T05:37:22;11.23;;;7.87;;
12385;SDS011;6257;57.634;18.310;2023-04-24T05:39:49;11.97;;;7.90;;
12385;SDS011;6257;57.634;18.310;2023-04-24T05:42:17;14.23;;;8.30;;
12385;SDS011;6257;57.634;18.310;2023-04-24T05:44:44;10.90;;;8.83;;
12385;SDS011;6257;57.634;18.310;2023-04-24T05:47:11;10.57;;;8.73;;
12385;SDS011;6257;57.634;18.310;2023-04-24T05:49:39;13.37;;;9.60;;
12385;SDS011;6257;57.634;18.310;2023-04-24T05:52:06;11.17;;;9.20;;
12385;SDS011;6257;57.634;18.310;2023-04-24T05:54:33;12.37;;;9.77;;
12385;SDS011;6257;57.634;18.310;2023-04-24T05:57:01;14.70;;;10.07;;
12385;SDS011;6257;57.634;18.310;2023-04-24T05:59:33;28.37;;;11.43;;
12385;SDS011;6257;57.634;18.310;2023-04-24T06:02:02;17.80;;;10.70;;
12385;SDS011;6257;57.634;18.310;2023-04-24T06:04:29;14.93;;;10.30;;
12385;SDS011;6257;57.634;18.310;2023-04-24T06:06:58;24.33;;;10.50;;
12385;SDS011;6257;57.634;18.310;2023-04-24T06:09:25;16.70;;;10.70;;
12385;SDS011;6257;57.634;18.310;2023-04-24T06:11:52;26.90;;;11.60;;
12385;SDS011;6257;57.634;18.310;2023-04-24T06:14:20;18.07;;;10.90;;
12385;SDS011;6257;57.634;18.310;2023-04-24T06:16:48;31.83;;;12.20;;
12385;SDS011;6257;57.634;18.310;2023-04-24T06:19:16;17.40;;;11.10;;
12385;SDS011;6257;57.634;18.310;2023-04-24T06:21:43;18.67;;;10.97;;
12385;SDS011;6257;57.634;18.310;2023-04-24T06:24:10;15.93;;;10.83;;
12385;SDS011;6257;57.634;18.310;2023-04-24T06:26:40;21.93;;;11.50;;
12385;SDS011;6257;57.634;18.310;2023-04-24T06:29:07;24.87;;;11.77;;
12385;SDS011;6257;57.634;18.310;2023-04-24T06:31:34;18.07;;;8.00;;
12385;SDS011;6257;57.634;18.310;2023-04-24T06:34:03;15.60;;;8.20;;
12385;SDS011;6257;57.634;18.310;2023-04-24T06:36:31;19.00;;;8.80;;
12385;SDS011;6257;57.634;18.310;2023-04-24T06:38:59;36.17;;;10.70;;
12385;SDS011;6257;57.634;18.310;2023-04-24T06:41:27;13.23;;;9.07;;
12385;SDS011;6257;57.634;18.310;2023-04-24T06:43:54;14.10;;;8.17;;
12385;SDS011;6257;57.634;18.310;2023-04-24T06:46:22;13.73;;;7.83;;
12385;SDS011;6257;57.634;18.310;2023-04-24T06:48:51;23.20;;;8.70;;
12385;SDS011;6257;57.634;18.310;2023-04-24T06:51:22;16.57;;;7.53;;
12385;SDS011;6257;57.634;18.310;2023-04-24T06:53:49;11.63;;;7.30;;
12385;SDS011;6257;57.634;18.310;2023-04-24T06:56:17;12.97;;;7.40;;
12385;SDS011;6257;57.634;18.310;2023-04-24T06:58:45;9.50;;;7.60;;
12385;SDS011;6257;57.634;18.310;2023-04-24T07:01:12;16.07;;;7.90;;
12385;SDS011;6257;57.634;18.310;2023-04-24T07:03:39;9.70;;;7.87;;
12385;SDS011;6257;57.634;18.310;2023-04-24T07:06:07;16.90;;;9.43;;
12385;SDS011;6257;57.634;18.310;2023-04-24T07:08:35;14.27;;;8.67;;
12385;SDS011;6257;57.634;18.310;2023-04-24T07:11:03;24.40;;;9.57;;
12385;SDS011;6257;57.634;18.310;2023-04-24T07:13:30;10.23;;;8.33;;
12385;SDS011;6257;57.634;18.310;2023-04-24T07:15:57;10.37;;;7.90;;
12385;SDS011;6257;57.634;18.310;2023-04-24T07:18:24;14.30;;;8.70;;
12385;SDS011;6257;57.634;18.310;2023-04-24T07:20:51;9.80;;;8.47;;
12385;SDS011;6257;57.634;18.310;2023-04-24T07:23:19;15.97;;;9.10;;
12385;SDS011;6257;57.634;18.310;2023-04-24T07:25:48;14.53;;;8.40;;
12385;SDS011;6257;57.634;18.310;2023-04-24T07:28:15;11.63;;;7.90;;
12385;SDS011;6257;57.634;18.310;2023-04-24T07:30:43;14.33;;;8.47;;
12385;SDS011;6257;57.634;18.310;2023-04-24T07:33:10;16.27;;;8.97;;
12385;SDS011;6257;57.634;18.310;2023-04-24T07:35:38;11.40;;;8.27;;
12385;SDS011;6257;57.634;18.310;2023-04-24T07:38:05;26.63;;;9.53;;
12385;SDS011;6257;57.634;18.310;2023-04-24T07:40:32;14.73;;;8.57;;
12385;SDS011;6257;57.634;18.310;2023-04-24T07:43:00;16.57;;;8.30;;
12385;SDS011;6257;57.634;18.310;2023-04-24T07:45:28;25.43;;;8.90;;
12385;SDS011;6257;57.634;18.310;2023-04-24T07:47:56;18.30;;;8.53;;
12385;SDS011;6257;57.634;18.310;2023-04-24T07:50:23;16.47;;;8.50;;
12385;SDS011;6257;57.634;18.310;2023-04-24T07:52:50;28.23;;;9.20;;
12385;SDS011;6257;57.634;18.310;2023-04-24T07:55:17;39.60;;;10.73;;
12385;SDS011;6257;57.634;18.310;2023-04-24T07:57:44;13.90;;;7.90;;
12385;SDS011;6257;57.634;18.310;2023-04-24T08:00:13;15.77;;;7.73;;
12385;SDS011;6257;57.634;18.310;2023-04-24T08:02:40;15.07;;;7.73;;
12385;SDS011;6257;57.634;18.310;2023-04-24T08:05:08;14.57;;;7.40;;
12385;SDS011;6257;57.634;18.310;2023-04-24T08:07:35;13.50;;;7.77;;
12385;SDS011;6257;57.634;18.310;2023-04-24T08:10:02;18.70;;;7.97;;
12385;SDS011;6257;57.634;18.310;2023-04-24T08:12:30;19.40;;;9.30;;
12385;SDS011;6257;57.634;18.310;2023-04-24T08:14:57;15.13;;;8.40;;
12385;SDS011;6257;57.634;18.310;2023-04-24T08:17:25;16.10;;;8.83;;
12385;SDS011;6257;57.634;18.310;2023-04-24T08:19:53;21.00;;;9.80;;
12385;SDS011;6257;57.634;18.310;2023-04-24T08:22:26;28.50;;;9.80;;
12385;SDS011;6257;57.634;18.310;2023-04-24T08:24:53;14.07;;;9.03;;
12385;SDS011;6257;57.634;18.310;2023-04-24T08:27:22;22.83;;;8.70;;
12385;SDS011;6257;57.634;18.310;2023-04-24T08:29:49;17.73;;;8.93;;
12385;SDS011;6257;57.634;18.310;2023-04-24T08:32:16;28.23;;;10.07;;
12385;SDS011;6257;57.634;18.310;2023-04-24T08:34:45;31.30;;;11.20;;
12385;SDS011;6257;57.634;18.310;2023-04-24T08:37:12;22.63;;;9.60;;
12385;SDS011;6257;57.634;18.310;2023-04-24T08:39:39;21.93;;;8.70;;
12385;SDS011;6257;57.634;18.310;2023-04-24T08:42:07;19.70;;;9.47;;
12385;SDS011;6257;57.634;18.310;2023-04-24T08:44:35;27.23;;;9.93;;
12385;SDS011;6257;57.634;18.310;2023-04-24T08:47:03;23.43;;;9.47;;
12385;SDS011;6257;57.634;18.310;2023-04-24T08:49:31;20.07;;;9.30;;
12385;SDS011;6257;57.634;18.310;2023-04-24T08:51:59;21.53;;;10.30;;
12385;SDS011;6257;57.634;18.310;2023-04-24T08:54:27;14.53;;;8.90;;
12385;SDS011;6257;57.634;18.310;2023-04-24T08:56:56;23.83;;;10.53;;
12385;SDS011;6257;57.634;18.310;2023-04-24T08:59:26;18.50;;;9.67;;
12385;SDS011;6257;57.634;18.310;2023-04-24T09:01:54;16.57;;;9.13;;
12385;SDS011;6257;57.634;18.310;2023-04-24T09:04:22;13.97;;;9.30;;
12385;SDS011;6257;57.634;18.310;2023-04-24T09:06:51;14.70;;;9.50;;
12385;SDS011;6257;57.634;18.310;2023-04-24T09:09:22;13.43;;;9.53;;
12385;SDS011;6257;57.634;18.310;2023-04-24T09:11:50;13.27;;;8.73;;
12385;SDS011;6257;57.634;18.310;2023-04-24T09:14:20;12.13;;;8.63;;
12385;SDS011;6257;57.634;18.310;2023-04-24T09:16:48;13.70;;;9.53;;
12385;SDS011;6257;57.634;18.310;2023-04-24T09:19:16;15.33;;;8.77;;
12385;SDS011;6257;57.634;18.310;2023-04-24T09:21:45;16.93;;;9.10;;
12385;SDS011;6257;57.634;18.310;2023-04-24T09:24:14;13.27;;;8.73;;
12385;SDS011;6257;57.634;18.310;2023-04-24T09:26:44;11.87;;;9.00;;
12385;SDS011;6257;57.634;18.310;2023-04-24T09:29:16;12.80;;;9.97;;
12385;SDS011;6257;57.634;18.310;2023-04-24T09:31:44;35.43;;;11.07;;
12385;SDS011;6257;57.634;18.310;2023-04-24T09:34:12;13.87;;;9.80;;
12385;SDS011;6257;57.634;18.310;2023-04-24T09:36:39;14.90;;;9.30;;
12385;SDS011;6257;57.634;18.310;2023-04-24T09:39:08;16.30;;;10.00;;
12385;SDS011;6257;57.634;18.310;2023-04-24T09:41:43;17.33;;;10.13;;
12385;SDS011;6257;57.634;18.310;2023-04-24T09:44:12;15.87;;;9.83;;
12385;SDS011;6257;57.634;18.310;2023-04-24T09:46:40;14.97;;;9.43;;
12385;SDS011;6257;57.634;18.310;2023-04-24T09:49:08;24.77;;;10.80;;
12385;SDS011;6257;57.634;18.310;2023-04-24T09:51:37;15.63;;;9.80;;
12385;SDS011;6257;57.634;18.310;2023-04-24T09:54:05;15.70;;;9.17;;
12385;SDS011;6257;57.634;18.310;2023-04-24T09:56:41;33.47;;;10.60;;
12385;SDS011;6257;57.634;18.310;2023-04-24T09:59:11;18.93;;;9.83;;
12385;SDS011;6257;57.634;18.310;2023-04-24T10:01:38;15.17;;;10.20;;
12385;SDS011;6257;57.634;18.310;2023-04-24T10:04:18;24.53;;;10.23;;
12385;SDS011;6257;57.634;18.310;2023-04-24T10:06:47;13.97;;;9.67;;
12385;SDS011;6257;57.634;18.310;2023-04-24T10:09:15;19.30;;;9.83;;
12385;SDS011;6257;57.634;18.310;2023-04-24T10:11:44;19.37;;;9.37;;
12385;SDS011;6257;57.634;18.310;2023-04-24T10:14:14;15.83;;;9.63;;
12385;SDS011;6257;57.634;18.310;2023-04-24T10:16:43;13.60;;;9.27;;
12385;SDS011;6257;57.634;18.310;2023-04-24T10:19:12;15.17;;;9.43;;
12385;SDS011;6257;57.634;18.310;2023-04-24T10:21:40;16.93;;;9.63;;
12385;SDS011;6257;57.634;18.310;2023-04-24T10:24:11;19.63;;;9.90;;
12385;SDS011;6257;57.634;18.310;2023-04-24T10:26:40;13.33;;;8.90;;
12385;SDS011;6257;57.634;18.310;2023-04-24T10:29:07;18.40;;;9.23;;
12385;SDS011;6257;57.634;18.310;2023-04-24T10:31:39;20.90;;;9.67;;
12385;SDS011;6257;57.634;18.310;2023-04-24T10:34:06;19.57;;;9.47;;
12385;SDS011;6257;57.634;18.310;2023-04-24T10:36:36;15.37;;;8.43;;
12385;SDS011;6257;57.634;18.310;2023-04-24T10:39:08;19.90;;;8.93;;
12385;SDS011;6257;57.634;18.310;2023-04-24T10:41:38;15.87;;;9.13;;
12385;SDS011;6257;57.634;18.310;2023-04-24T10:44:05;22.27;;;9.30;;
12385;SDS011;6257;57.634;18.310;2023-04-24T10:46:32;15.93;;;8.27;;
12385;SDS011;6257;57.634;18.310;2023-04-24T10:49:01;14.60;;;8.53;;
12385;SDS011;6257;57.634;18.310;2023-04-24T10:51:43;22.00;;;8.63;;
12385;SDS011;6257;57.634;18.310;2023-04-24T10:54:21;12.77;;;7.57;;
12385;SDS011;6257;57.634;18.310;2023-04-24T10:56:50;14.90;;;8.60;;
12385;SDS011;6257;57.634;18.310;2023-04-24T10:59:24;11.07;;;7.63;;
12385;SDS011;6257;57.634;18.310;2023-04-24T11:01:55;14.43;;;7.33;;
12385;SDS011;6257;57.634;18.310;2023-04-24T11:04:32;9.10;;;4.73;;
12385;SDS011;6257;57.634;18.310;2023-04-24T11:07:00;68.97;;;9.23;;
12385;SDS011;6257;57.634;18.310;2023-04-24T11:09:29;4.83;;;3.67;;
12385;SDS011;6257;57.634;18.310;2023-04-24T11:12:04;11.90;;;6.97;;
12385;SDS011;6257;57.634;18.310;2023-04-24T11:17:29;14.23;;;7.80;;
12385;SDS011;6257;57.634;18.310;2023-04-24T11:20:02;17.33;;;7.90;;
12385;SDS011;6257;57.634;18.310;2023-04-24T11:22:32;20.10;;;8.47;;
12385;SDS011;6257;57.634;18.310;2023-04-24T11:25:01;19.83;;;8.10;;
12385;SDS011;6257;57.634;18.310;2023-04-24T11:27:29;9.53;;;7.63;;
12385;SDS011;6257;57.634;18.310;2023-04-24T11:29:59;13.67;;;7.87;;
12385;SDS011;6257;57.634;18.310;2023-04-24T11:32:27;18.20;;;8.20;;
12385;SDS011;6257;57.634;18.310;2023-04-24T11:34:55;12.73;;;8.23;;
12385;SDS011;6257;57.634;18.310;2023-04-24T11:37:26;9.17;;;7.37;;
12385;SDS011;6257;57.634;18.310;2023-04-24T11:39:55;14.83;;;7.53;;
12385;SDS011;6257;57.634;18.310;2023-04-24T11:42:23;26.23;;;8.53;;
12385;SDS011;6257;57.634;18.310;2023-04-24T11:44:51;10.50;;;7.30;;
12385;SDS011;6257;57.634;18.310;2023-04-24T11:47:19;10.77;;;7.37;;
12385;SDS011;6257;57.634;18.310;2023-04-24T11:49:49;11.50;;;6.93;;
12385;SDS011;6257;57.634;18.310;2023-04-24T11:52:17;16.03;;;7.47;;
12385;SDS011;6257;57.634;18.310;2023-04-24T11:54:49;9.83;;;5.77;;
12385;SDS011;6257;57.634;18.310;2023-04-24T11:57:18;10.37;;;6.50;;
12385;SDS011;6257;57.634;18.310;2023-04-24T11:59:46;11.80;;;5.13;;
12385;SDS011;6257;57.634;18.310;2023-04-24T12:02:22;3.67;;;2.80;;
12385;SDS011;6257;57.634;18.310;2023-04-24T12:04:51;2.80;;;2.57;;
12385;SDS011;6257;57.634;18.310;2023-04-24T12:07:18;3.40;;;2.93;;
12385;SDS011;6257;57.634;18.310;2023-04-24T12:09:46;3.77;;;2.57;;
12385;SDS011;6257;57.634;18.310;2023-04-24T12:12:15;2.50;;;2.30;;
12385;SDS011;6257;57.634;18.310;2023-04-24T12:14:44;2.77;;;2.53;;
12385;SDS011;6257;57.634;18.310;2023-04-24T12:17:14;5.03;;;2.50;;
12385;SDS011;6257;57.634;18.310;2023-04-24T12:19:45;3.87;;;2.80;;
12385;SDS011;6257;57.634;18.310;2023-04-24T12:22:13;2.83;;;2.40;;
12385;SDS011;6257;57.634;18.310;2023-04-24T12:24:56;3.57;;;2.50;;
12385;SDS011;6257;57.634;18.310;2023-04-24T12:27:30;3.63;;;2.57;;
12385;SDS011;6257;57.634;18.310;2023-04-24T12:29:59;2.20;;;1.93;;
12385;SDS011;6257;57.634;18.310;2023-04-24T12:32:27;2.70;;;2.00;;
12385;SDS011;6257;57.634;18.310;2023-04-24T12:34:55;4.43;;;2.27;;
12385;SDS011;6257;57.634;18.310;2023-04-24T12:37:23;3.70;;;2.20;;
12385;SDS011;6257;57.634;18.310;2023-04-24T12:40:00;2.40;;;1.93;;
12385;SDS011;6257;57.634;18.310;2023-04-24T12:42:32;6.93;;;2.10;;
12385;SDS011;6257;57.634;18.310;2023-04-24T12:45:01;2.57;;;1.80;;
12385;SDS011;6257;57.634;18.310;2023-04-24T12:47:30;9.20;;;2.13;;
12385;SDS011;6257;57.634;18.310;2023-04-24T12:49:58;2.27;;;1.93;;
12385;SDS011;6257;57.634;18.310;2023-04-24T12:52:25;2.17;;;1.57;;
12385;SDS011;6257;57.634;18.310;2023-04-24T12:54:54;4.10;;;1.73;;
12385;SDS011;6257;57.634;18.310;2023-04-24T12:57:22;3.73;;;2.00;;
12385;SDS011;6257;57.634;18.310;2023-04-24T12:59:51;1.97;;;1.77;;
12385;SDS011;6257;57.634;18.310;2023-04-24T13:02:19;2.40;;;1.83;;
12385;SDS011;6257;57.634;18.310;2023-04-24T13:04:47;5.27;;;1.80;;
12385;SDS011;6257;57.634;18.310;2023-04-24T13:07:15;2.77;;;1.83;;
12385;SDS011;6257;57.634;18.310;2023-04-24T13:09:43;2.17;;;1.60;;
12385;SDS011;6257;57.634;18.310;2023-04-24T13:12:11;2.87;;;1.60;;
12385;SDS011;6257;57.634;18.310;2023-04-24T13:14:39;3.43;;;3.13;;
12385;SDS011;6257;57.634;18.310;2023-04-24T13:17:07;10.87;;;5.63;;
12385;SDS011;6257;57.634;18.310;2023-04-24T13:19:37;8.57;;;6.50;;
12385;SDS011;6257;57.634;18.310;2023-04-24T13:22:05;8.97;;;6.97;;
12385;SDS011;6257;57.634;18.310;2023-04-24T13:24:32;12.83;;;7.87;;
12385;SDS011;6257;57.634;18.310;2023-04-24T13:26:59;9.93;;;7.50;;
12385;SDS011;6257;57.634;18.310;2023-04-24T13:29:27;11.03;;;7.23;;
12385;SDS011;6257;57.634;18.310;2023-04-24T13:31:54;7.90;;;7.10;;
12385;SDS011;6257;57.634;18.310;2023-04-24T13:34:23;7.30;;;6.00;;
12385;SDS011;6257;57.634;18.310;2023-04-24T13:36:52;7.50;;;6.40;;
12385;SDS011;6257;57.634;18.310;2023-04-24T13:39:19;12.30;;;7.30;;
12385;SDS011;6257;57.634;18.310;2023-04-24T13:41:46;10.43;;;7.40;;
12385;SDS011;6257;57.634;18.310;2023-04-24T13:44:14;9.23;;;6.77;;
12385;SDS011;6257;57.634;18.310;2023-04-24T13:46:41;12.57;;;7.30;;
12385;SDS011;6257;57.634;18.310;2023-04-24T13:49:10;12.77;;;6.90;;
12385;SDS011;6257;57.634;18.310;2023-04-24T13:51:38;13.17;;;6.20;;
12385;SDS011;6257;57.634;18.310;2023-04-24T13:54:06;11.40;;;6.27;;
12385;SDS011;6257;57.634;18.310;2023-04-24T13:56:33;6.17;;;5.27;;
12385;SDS011;6257;57.634;18.310;2023-04-24T13:59:00;6.83;;;5.27;;
12385;SDS011;6257;57.634;18.310;2023-04-24T14:01:27;6.87;;;4.83;;
12385;SDS011;6257;57.634;18.310;2023-04-24T14:03:55;6.30;;;3.13;;
12385;SDS011;6257;57.634;18.310;2023-04-24T14:06:22;9.30;;;4.60;;
12385;SDS011;6257;57.634;18.310;2023-04-24T14:08:50;2.57;;;1.90;;
12385;SDS011;6257;57.634;18.310;2023-04-24T14:11:18;5.50;;;1.77;;
12385;SDS011;6257;57.634;18.310;2023-04-24T14:13:46;2.20;;;1.70;;
12385;SDS011;6257;57.634;18.310;2023-04-24T14:16:13;3.63;;;2.17;;
12385;SDS011;6257;57.634;18.310;2023-04-24T14:18:40;2.20;;;2.03;;
12385;SDS011;6257;57.634;18.310;2023-04-24T14:21:07;3.70;;;1.97;;
12385;SDS011;6257;57.634;18.310;2023-04-24T14:23:34;3.60;;;2.30;;
12385;SDS011;6257;57.634;18.310;2023-04-24T14:26:03;6.67;;;2.30;;
12385;SDS011;6257;57.634;18.310;2023-04-24T14:28:30;3.63;;;2.30;;
12385;SDS011;6257;57.634;18.310;2023-04-24T14:30:57;2.33;;;2.13;;
12385;SDS011;6257;57.634;18.310;2023-04-24T14:33:24;3.77;;;2.13;;
12385;SDS011;6257;57.634;18.310;2023-04-24T14:35:51;2.97;;;2.30;;
12385;SDS011;6257;57.634;18.310;2023-04-24T14:38:18;2.30;;;2.10;;
12385;SDS011;6257;57.634;18.310;2023-04-24T14:40:45;4.47;;;2.70;;
12385;SDS011;6257;57.634;18.310;2023-04-24T14:43:14;12.83;;;3.10;;
12385;SDS011;6257;57.634;18.310;2023-04-24T14:45:41;2.50;;;2.30;;
12385;SDS011;6257;57.634;18.310;2023-04-24T14:48:09;3.03;;;2.33;;